sensor_id;sensor_type;location;lat;lon;timestamp;P1;durP1;ratioP1;P2;durP2;ratioP2
59424;SDS011;45231;44.826;20.312;2023-06-24T00:00:12;12.65;;;4.00;;
59424;SDS011;45231;44.826;20.312;2023-06-24T00:02:39;10.88;;;3.95;;
59424;SDS011;45231;44.826;20.312;2023-06-24T00:05:08;15.73;;;3.63;;
59424;SDS011;45231;44.826;20.312;2023-06-24T00:07:34;9.07;;;3.53;;
59424;SDS011;45231;44.826;20.312;2023-06-24T00:10:10;9.82;;;3.33;;
59424;SDS011;45231;44.826;20.312;2023-06-24T00:12:37;12.30;;;4.35;;
59424;SDS011;45231;44.826;20.312;2023-06-24T00:15:05;13.25;;;4.20;;
59424;SDS011;45231;44.826;20.312;2023-06-24T00:17:31;12.95;;;3.70;;
59424;SDS011;45231;44.826;20.312;2023-06-24T00:19:57;10.15;;;3.85;;
59424;SDS011;45231;44.826;20.312;2023-06-24T00:22:23;12.80;;;3.58;;
59424;SDS011;45231;44.826;20.312;2023-06-24T00:24:49;12.43;;;4.32;;
59424;SDS011;45231;44.826;20.312;2023-06-24T00:27:15;10.38;;;3.75;;
59424;SDS011;45231;44.826;20.312;2023-06-24T00:29:41;10.13;;;3.67;;
59424;SDS011;45231;44.826;20.312;2023-06-24T00:32:07;9.90;;;3.75;;
59424;SDS011;45231;44.826;20.312;2023-06-24T00:34:34;12.38;;;3.50;;
59424;SDS011;45231;44.826;20.312;2023-06-24T00:37:00;13.75;;;4.00;;
59424;SDS011;45231;44.826;20.312;2023-06-24T00:39:28;11.98;;;3.97;;
59424;SDS011;45231;44.826;20.312;2023-06-24T00:41:54;8.70;;;3.67;;
59424;SDS011;45231;44.826;20.312;2023-06-24T00:44:20;13.25;;;4.35;;
59424;SDS011;45231;44.826;20.312;2023-06-24T00:46:46;13.50;;;4.13;;
59424;SDS011;45231;44.826;20.312;2023-06-24T00:49:12;10.35;;;4.05;;
59424;SDS011;45231;44.826;20.312;2023-06-24T00:51:40;8.93;;;3.67;;
59424;SDS011;45231;44.826;20.312;2023-06-24T00:54:15;10.55;;;3.60;;
59424;SDS011;45231;44.826;20.312;2023-06-24T00:56:41;13.45;;;4.22;;
59424;SDS011;45231;44.826;20.312;2023-06-24T00:59:08;13.27;;;3.90;;
59424;SDS011;45231;44.826;20.312;2023-06-24T01:01:37;9.57;;;3.53;;
59424;SDS011;45231;44.826;20.312;2023-06-24T01:06:29;12.63;;;3.72;;
59424;SDS011;45231;44.826;20.312;2023-06-24T01:08:56;10.45;;;3.72;;
59424;SDS011;45231;44.826;20.312;2023-06-24T01:11:23;11.98;;;4.50;;
59424;SDS011;45231;44.826;20.312;2023-06-24T01:13:49;8.35;;;3.95;;
59424;SDS011;45231;44.826;20.312;2023-06-24T01:18:46;10.45;;;4.50;;
59424;SDS011;45231;44.826;20.312;2023-06-24T01:26:14;8.80;;;4.30;;
59424;SDS011;45231;44.826;20.312;2023-06-24T01:28:45;12.05;;;4.40;;
59424;SDS011;45231;44.826;20.312;2023-06-24T01:36:11;8.63;;;4.05;;
59424;SDS011;45231;44.826;20.312;2023-06-24T01:38:43;11.20;;;4.35;;
59424;SDS011;45231;44.826;20.312;2023-06-24T01:41:10;12.35;;;4.40;;
59424;SDS011;45231;44.826;20.312;2023-06-24T01:43:38;9.98;;;4.32;;
59424;SDS011;45231;44.826;20.312;2023-06-24T01:46:07;14.88;;;4.72;;
59424;SDS011;45231;44.826;20.312;2023-06-24T01:48:35;12.75;;;4.18;;
59424;SDS011;45231;44.826;20.312;2023-06-24T01:51:03;10.40;;;4.43;;
59424;SDS011;45231;44.826;20.312;2023-06-24T01:53:36;11.25;;;4.07;;
59424;SDS011;45231;44.826;20.312;2023-06-24T01:56:05;11.00;;;4.53;;
59424;SDS011;45231;44.826;20.312;2023-06-24T01:58:31;9.35;;;4.30;;
59424;SDS011;45231;44.826;20.312;2023-06-24T02:01:00;10.60;;;4.22;;
59424;SDS011;45231;44.826;20.312;2023-06-24T02:03:26;10.55;;;4.38;;
59424;SDS011;45231;44.826;20.312;2023-06-24T02:08:19;10.68;;;4.50;;
59424;SDS011;45231;44.826;20.312;2023-06-24T02:10:46;10.30;;;4.80;;
59424;SDS011;45231;44.826;20.312;2023-06-24T02:13:12;10.15;;;4.15;;
59424;SDS011;45231;44.826;20.312;2023-06-24T02:15:38;10.13;;;4.45;;
59424;SDS011;45231;44.826;20.312;2023-06-24T02:18:04;9.48;;;4.57;;
59424;SDS011;45231;44.826;20.312;2023-06-24T02:20:31;16.63;;;5.60;;
59424;SDS011;45231;44.826;20.312;2023-06-24T02:25:24;12.55;;;5.38;;
59424;SDS011;45231;44.826;20.312;2023-06-24T02:27:52;12.02;;;4.70;;
59424;SDS011;45231;44.826;20.312;2023-06-24T02:30:19;15.63;;;5.85;;
59424;SDS011;45231;44.826;20.312;2023-06-24T02:32:46;10.73;;;4.55;;
59424;SDS011;45231;44.826;20.312;2023-06-24T02:35:12;11.07;;;4.38;;
59424;SDS011;45231;44.826;20.312;2023-06-24T02:37:38;9.93;;;5.30;;
59424;SDS011;45231;44.826;20.312;2023-06-24T02:40:04;13.30;;;4.60;;
59424;SDS011;45231;44.826;20.312;2023-06-24T02:42:32;9.63;;;4.90;;
59424;SDS011;45231;44.826;20.312;2023-06-24T02:44:58;8.55;;;4.60;;
59424;SDS011;45231;44.826;20.312;2023-06-24T02:49:50;9.18;;;4.60;;
59424;SDS011;45231;44.826;20.312;2023-06-24T02:52:17;11.40;;;5.00;;
59424;SDS011;45231;44.826;20.312;2023-06-24T02:54:43;10.73;;;4.40;;
59424;SDS011;45231;44.826;20.312;2023-06-24T02:57:10;10.65;;;4.72;;
59424;SDS011;45231;44.826;20.312;2023-06-24T02:59:36;11.68;;;5.00;;
59424;SDS011;45231;44.826;20.312;2023-06-24T03:02:02;10.95;;;4.65;;
59424;SDS011;45231;44.826;20.312;2023-06-24T03:04:30;11.20;;;4.30;;
59424;SDS011;45231;44.826;20.312;2023-06-24T03:06:56;14.02;;;5.18;;
59424;SDS011;45231;44.826;20.312;2023-06-24T03:09:26;13.60;;;4.45;;
59424;SDS011;45231;44.826;20.312;2023-06-24T03:11:52;12.98;;;4.45;;
59424;SDS011;45231;44.826;20.312;2023-06-24T03:14:18;10.77;;;4.90;;
59424;SDS011;45231;44.826;20.312;2023-06-24T03:16:44;11.95;;;4.75;;
59424;SDS011;45231;44.826;20.312;2023-06-24T03:19:10;7.95;;;4.10;;
59424;SDS011;45231;44.826;20.312;2023-06-24T03:21:36;11.52;;;4.30;;
59424;SDS011;45231;44.826;20.312;2023-06-24T03:24:02;12.05;;;5.05;;
59424;SDS011;45231;44.826;20.312;2023-06-24T03:26:32;12.57;;;4.50;;
59424;SDS011;45231;44.826;20.312;2023-06-24T03:28:58;9.05;;;4.65;;
59424;SDS011;45231;44.826;20.312;2023-06-24T03:31:25;11.30;;;4.90;;
59424;SDS011;45231;44.826;20.312;2023-06-24T03:33:51;10.98;;;4.30;;
59424;SDS011;45231;44.826;20.312;2023-06-24T03:36:17;10.13;;;4.28;;
59424;SDS011;45231;44.826;20.312;2023-06-24T03:38:43;10.20;;;4.18;;
59424;SDS011;45231;44.826;20.312;2023-06-24T03:41:09;8.45;;;4.07;;
59424;SDS011;45231;44.826;20.312;2023-06-24T03:43:35;11.20;;;4.63;;
59424;SDS011;45231;44.826;20.312;2023-06-24T03:46:01;9.85;;;4.20;;
59424;SDS011;45231;44.826;20.312;2023-06-24T03:48:27;10.43;;;4.28;;
59424;SDS011;45231;44.826;20.312;2023-06-24T03:50:53;9.68;;;4.18;;
59424;SDS011;45231;44.826;20.312;2023-06-24T03:53:19;10.68;;;3.92;;
59424;SDS011;45231;44.826;20.312;2023-06-24T03:55:45;9.55;;;4.05;;
59424;SDS011;45231;44.826;20.312;2023-06-24T03:58:11;10.60;;;4.03;;
59424;SDS011;45231;44.826;20.312;2023-06-24T04:00:38;9.48;;;4.05;;
59424;SDS011;45231;44.826;20.312;2023-06-24T04:03:08;9.27;;;4.00;;
59424;SDS011;45231;44.826;20.312;2023-06-24T04:05:34;12.43;;;4.30;;
59424;SDS011;45231;44.826;20.312;2023-06-24T04:08:00;10.18;;;4.47;;
59424;SDS011;45231;44.826;20.312;2023-06-24T04:10:30;11.48;;;4.25;;
59424;SDS011;45231;44.826;20.312;2023-06-24T04:12:57;8.40;;;4.25;;
59424;SDS011;45231;44.826;20.312;2023-06-24T04:15:23;10.48;;;5.22;;
59424;SDS011;45231;44.826;20.312;2023-06-24T04:17:49;10.73;;;4.63;;
59424;SDS011;45231;44.826;20.312;2023-06-24T04:20:15;8.82;;;4.47;;
59424;SDS011;45231;44.826;20.312;2023-06-24T04:22:41;10.35;;;5.18;;
59424;SDS011;45231;44.826;20.312;2023-06-24T04:27:33;11.20;;;5.63;;
59424;SDS011;45231;44.826;20.312;2023-06-24T04:30:00;17.30;;;5.68;;
59424;SDS011;45231;44.826;20.312;2023-06-24T04:32:26;11.82;;;5.15;;
59424;SDS011;45231;44.826;20.312;2023-06-24T04:34:52;9.57;;;5.60;;
59424;SDS011;45231;44.826;20.312;2023-06-24T04:37:18;11.75;;;5.40;;
59424;SDS011;45231;44.826;20.312;2023-06-24T04:39:44;13.00;;;5.43;;
59424;SDS011;45231;44.826;20.312;2023-06-24T04:42:10;12.52;;;5.45;;
59424;SDS011;45231;44.826;20.312;2023-06-24T04:44:37;9.43;;;5.70;;
59424;SDS011;45231;44.826;20.312;2023-06-24T04:47:03;11.85;;;6.22;;
59424;SDS011;45231;44.826;20.312;2023-06-24T04:51:55;8.88;;;5.63;;
59424;SDS011;45231;44.826;20.312;2023-06-24T04:54:21;12.60;;;5.75;;
59424;SDS011;45231;44.826;20.312;2023-06-24T04:56:47;12.68;;;5.65;;
59424;SDS011;45231;44.826;20.312;2023-06-24T04:59:15;14.60;;;5.53;;
59424;SDS011;45231;44.826;20.312;2023-06-24T05:01:41;11.60;;;5.57;;
59424;SDS011;45231;44.826;20.312;2023-06-24T05:04:07;10.30;;;5.85;;
59424;SDS011;45231;44.826;20.312;2023-06-24T05:06:33;11.90;;;6.10;;
59424;SDS011;45231;44.826;20.312;2023-06-24T05:08:59;12.20;;;5.75;;
59424;SDS011;45231;44.826;20.312;2023-06-24T05:11:25;12.75;;;6.32;;
59424;SDS011;45231;44.826;20.312;2023-06-24T05:13:51;11.55;;;6.18;;
59424;SDS011;45231;44.826;20.312;2023-06-24T05:16:17;12.45;;;6.55;;
59424;SDS011;45231;44.826;20.312;2023-06-24T05:18:44;9.85;;;6.43;;
59424;SDS011;45231;44.826;20.312;2023-06-24T05:21:10;10.60;;;6.50;;
59424;SDS011;45231;44.826;20.312;2023-06-24T05:23:37;12.98;;;6.93;;
59424;SDS011;45231;44.826;20.312;2023-06-24T05:26:03;12.43;;;6.75;;
59424;SDS011;45231;44.826;20.312;2023-06-24T05:28:29;11.02;;;6.45;;
59424;SDS011;45231;44.826;20.312;2023-06-24T05:30:56;11.88;;;6.55;;
59424;SDS011;45231;44.826;20.312;2023-06-24T05:33:22;10.93;;;6.30;;
59424;SDS011;45231;44.826;20.312;2023-06-24T05:35:48;11.27;;;6.30;;
59424;SDS011;45231;44.826;20.312;2023-06-24T05:38:15;12.48;;;5.82;;
59424;SDS011;45231;44.826;20.312;2023-06-24T05:40:41;11.52;;;5.88;;
59424;SDS011;45231;44.826;20.312;2023-06-24T05:43:07;10.60;;;5.68;;
59424;SDS011;45231;44.826;20.312;2023-06-24T05:45:33;10.00;;;5.80;;
59424;SDS011;45231;44.826;20.312;2023-06-24T05:47:59;10.10;;;5.57;;
59424;SDS011;45231;44.826;20.312;2023-06-24T05:50:25;12.27;;;5.25;;
59424;SDS011;45231;44.826;20.312;2023-06-24T05:52:52;8.20;;;4.63;;
59424;SDS011;45231;44.826;20.312;2023-06-24T05:55:18;9.32;;;4.93;;
59424;SDS011;45231;44.826;20.312;2023-06-24T05:57:44;11.07;;;4.95;;
59424;SDS011;45231;44.826;20.312;2023-06-24T06:00:10;8.68;;;4.20;;
59424;SDS011;45231;44.826;20.312;2023-06-24T06:02:36;12.48;;;5.28;;
59424;SDS011;45231;44.826;20.312;2023-06-24T06:07:28;10.93;;;4.65;;
59424;SDS011;45231;44.826;20.312;2023-06-24T06:12:20;9.75;;;4.43;;
59424;SDS011;45231;44.826;20.312;2023-06-24T06:17:13;10.35;;;4.38;;
59424;SDS011;45231;44.826;20.312;2023-06-24T06:19:40;9.15;;;4.55;;
59424;SDS011;45231;44.826;20.312;2023-06-24T06:22:06;8.10;;;3.88;;
59424;SDS011;45231;44.826;20.312;2023-06-24T06:24:32;8.98;;;3.80;;
59424;SDS011;45231;44.826;20.312;2023-06-24T06:26:59;9.00;;;4.40;;
59424;SDS011;45231;44.826;20.312;2023-06-24T06:29:25;11.38;;;3.60;;
59424;SDS011;45231;44.826;20.312;2023-06-24T06:31:51;10.25;;;4.38;;
59424;SDS011;45231;44.826;20.312;2023-06-24T06:34:18;7.90;;;3.85;;
59424;SDS011;45231;44.826;20.312;2023-06-24T06:39:10;7.22;;;3.42;;
59424;SDS011;45231;44.826;20.312;2023-06-24T06:44:01;6.45;;;3.00;;
59424;SDS011;45231;44.826;20.312;2023-06-24T06:48:53;10.95;;;3.50;;
59424;SDS011;45231;44.826;20.312;2023-06-24T06:53:45;12.70;;;3.30;;
59424;SDS011;45231;44.826;20.312;2023-06-24T06:58:37;19.27;;;4.50;;
59424;SDS011;45231;44.826;20.312;2023-06-24T07:03:30;11.02;;;4.00;;
59424;SDS011;45231;44.826;20.312;2023-06-24T07:08:23;10.13;;;4.60;;
59424;SDS011;45231;44.826;20.312;2023-06-24T07:10:49;8.05;;;4.32;;
59424;SDS011;45231;44.826;20.312;2023-06-24T07:13:15;10.40;;;4.70;;
59424;SDS011;45231;44.826;20.312;2023-06-24T07:15:41;10.25;;;4.22;;
59424;SDS011;45231;44.826;20.312;2023-06-24T07:18:07;11.65;;;4.57;;
59424;SDS011;45231;44.826;20.312;2023-06-24T07:20:33;8.25;;;4.53;;
59424;SDS011;45231;44.826;20.312;2023-06-24T07:23:00;10.93;;;4.45;;
59424;SDS011;45231;44.826;20.312;2023-06-24T07:25:26;10.38;;;4.55;;
59424;SDS011;45231;44.826;20.312;2023-06-24T07:27:53;11.20;;;4.93;;
59424;SDS011;45231;44.826;20.312;2023-06-24T07:30:19;8.20;;;5.00;;
59424;SDS011;45231;44.826;20.312;2023-06-24T07:32:45;8.60;;;4.53;;
59424;SDS011;45231;44.826;20.312;2023-06-24T07:37:38;8.27;;;4.80;;
59424;SDS011;45231;44.826;20.312;2023-06-24T07:40:05;9.05;;;4.80;;
59424;SDS011;45231;44.826;20.312;2023-06-24T07:42:33;7.63;;;4.70;;
59424;SDS011;45231;44.826;20.312;2023-06-24T07:47:24;9.90;;;4.85;;
59424;SDS011;45231;44.826;20.312;2023-06-24T07:49:51;8.30;;;4.88;;
59424;SDS011;45231;44.826;20.312;2023-06-24T07:54:43;7.82;;;4.55;;
59424;SDS011;45231;44.826;20.312;2023-06-24T07:59:35;10.07;;;5.13;;
59424;SDS011;45231;44.826;20.312;2023-06-24T08:02:01;10.10;;;4.97;;
59424;SDS011;45231;44.826;20.312;2023-06-24T08:04:27;8.15;;;5.13;;
59424;SDS011;45231;44.826;20.312;2023-06-24T08:06:53;10.75;;;5.30;;
59424;SDS011;45231;44.826;20.312;2023-06-24T08:09:19;12.07;;;5.57;;
59424;SDS011;45231;44.826;20.312;2023-06-24T08:11:45;11.85;;;5.18;;
59424;SDS011;45231;44.826;20.312;2023-06-24T08:14:11;9.65;;;5.55;;
59424;SDS011;45231;44.826;20.312;2023-06-24T08:16:37;9.43;;;5.30;;
59424;SDS011;45231;44.826;20.312;2023-06-24T08:19:04;12.35;;;5.63;;
59424;SDS011;45231;44.826;20.312;2023-06-24T08:21:33;9.05;;;4.93;;
59424;SDS011;45231;44.826;20.312;2023-06-24T08:23:59;20.23;;;6.35;;
59424;SDS011;45231;44.826;20.312;2023-06-24T08:26:25;14.57;;;6.30;;
59424;SDS011;45231;44.826;20.312;2023-06-24T08:28:51;11.68;;;5.80;;
59424;SDS011;45231;44.826;20.312;2023-06-24T08:31:17;9.93;;;6.25;;
59424;SDS011;45231;44.826;20.312;2023-06-24T08:33:47;11.75;;;5.60;;
59424;SDS011;45231;44.826;20.312;2023-06-24T08:36:17;9.15;;;5.75;;
59424;SDS011;45231;44.826;20.312;2023-06-24T08:38:43;10.35;;;5.88;;
59424;SDS011;45231;44.826;20.312;2023-06-24T08:41:09;13.45;;;5.72;;
59424;SDS011;45231;44.826;20.312;2023-06-24T08:43:35;9.93;;;5.38;;
59424;SDS011;45231;44.826;20.312;2023-06-24T08:46:02;11.38;;;5.68;;
59424;SDS011;45231;44.826;20.312;2023-06-24T08:48:28;11.70;;;5.70;;
59424;SDS011;45231;44.826;20.312;2023-06-24T08:50:56;10.18;;;5.95;;
59424;SDS011;45231;44.826;20.312;2023-06-24T08:53:23;13.40;;;6.55;;
59424;SDS011;45231;44.826;20.312;2023-06-24T08:55:52;11.85;;;6.15;;
59424;SDS011;45231;44.826;20.312;2023-06-24T08:58:19;8.63;;;5.15;;
59424;SDS011;45231;44.826;20.312;2023-06-24T09:00:45;17.15;;;6.00;;
59424;SDS011;45231;44.826;20.312;2023-06-24T09:03:11;9.68;;;6.30;;
59424;SDS011;45231;44.826;20.312;2023-06-24T09:05:37;12.32;;;6.13;;
59424;SDS011;45231;44.826;20.312;2023-06-24T09:08:03;14.23;;;6.35;;
59424;SDS011;45231;44.826;20.312;2023-06-24T09:13:02;15.70;;;5.65;;
59424;SDS011;45231;44.826;20.312;2023-06-24T09:15:32;12.63;;;6.05;;
59424;SDS011;45231;44.826;20.312;2023-06-24T09:17:58;13.18;;;6.85;;
59424;SDS011;45231;44.826;20.312;2023-06-24T09:20:29;14.15;;;6.75;;
59424;SDS011;45231;44.826;20.312;2023-06-24T09:23:02;11.73;;;7.43;;
59424;SDS011;45231;44.826;20.312;2023-06-24T09:25:30;11.73;;;7.13;;
59424;SDS011;45231;44.826;20.312;2023-06-24T09:28:02;11.95;;;6.68;;
59424;SDS011;45231;44.826;20.312;2023-06-24T09:30:29;9.60;;;7.18;;
59424;SDS011;45231;44.826;20.312;2023-06-24T09:35:23;13.85;;;6.40;;
59424;SDS011;45231;44.826;20.312;2023-06-24T09:37:52;15.10;;;6.30;;
59424;SDS011;45231;44.826;20.312;2023-06-24T09:40:19;14.27;;;6.00;;
59424;SDS011;45231;44.826;20.312;2023-06-24T09:42:52;17.63;;;6.70;;
59424;SDS011;45231;44.826;20.312;2023-06-24T09:45:25;16.35;;;6.80;;
59424;SDS011;45231;44.826;20.312;2023-06-24T09:47:52;18.25;;;7.10;;
59424;SDS011;45231;44.826;20.312;2023-06-24T09:50:18;15.75;;;7.65;;
59424;SDS011;45231;44.826;20.312;2023-06-24T09:52:45;12.07;;;7.25;;
59424;SDS011;45231;44.826;20.312;2023-06-24T09:57:37;18.83;;;11.63;;
59424;SDS011;45231;44.826;20.312;2023-06-24T10:00:04;19.20;;;12.00;;
59424;SDS011;45231;44.826;20.312;2023-06-24T10:02:30;16.15;;;9.63;;
59424;SDS011;45231;44.826;20.312;2023-06-24T10:04:56;13.48;;;7.97;;
59424;SDS011;45231;44.826;20.312;2023-06-24T10:07:23;10.90;;;6.45;;
59424;SDS011;45231;44.826;20.312;2023-06-24T10:09:50;10.68;;;6.10;;
59424;SDS011;45231;44.826;20.312;2023-06-24T10:12:16;11.10;;;6.55;;
59424;SDS011;45231;44.826;20.312;2023-06-24T10:14:42;10.77;;;5.60;;
59424;SDS011;45231;44.826;20.312;2023-06-24T10:17:08;10.15;;;5.97;;
59424;SDS011;45231;44.826;20.312;2023-06-24T10:19:37;11.55;;;5.60;;
59424;SDS011;45231;44.826;20.312;2023-06-24T10:22:07;11.43;;;5.65;;
59424;SDS011;45231;44.826;20.312;2023-06-24T10:24:37;11.95;;;5.65;;
59424;SDS011;45231;44.826;20.312;2023-06-24T10:27:17;9.73;;;5.57;;
59424;SDS011;45231;44.826;20.312;2023-06-24T10:29:47;10.00;;;5.43;;
59424;SDS011;45231;44.826;20.312;2023-06-24T10:32:13;8.93;;;5.70;;
59424;SDS011;45231;44.826;20.312;2023-06-24T10:37:30;10.23;;;5.67;;
59424;SDS011;45231;44.826;20.312;2023-06-24T10:40:00;8.95;;;4.75;;
59424;SDS011;45231;44.826;20.312;2023-06-24T10:44:53;9.77;;;5.53;;
59424;SDS011;45231;44.826;20.312;2023-06-24T10:47:19;9.50;;;6.43;;
59424;SDS011;45231;44.826;20.312;2023-06-24T10:49:45;13.10;;;7.80;;
59424;SDS011;45231;44.826;20.312;2023-06-24T10:52:11;14.98;;;8.35;;
59424;SDS011;45231;44.826;20.312;2023-06-24T10:57:04;15.27;;;9.13;;
59424;SDS011;45231;44.826;20.312;2023-06-24T11:01:56;15.05;;;9.45;;
59424;SDS011;45231;44.826;20.312;2023-06-24T11:04:22;13.82;;;9.02;;
59424;SDS011;45231;44.826;20.312;2023-06-24T11:07:00;15.52;;;9.38;;
59424;SDS011;45231;44.826;20.312;2023-06-24T11:09:27;15.68;;;9.77;;
59424;SDS011;45231;44.826;20.312;2023-06-24T11:14:19;16.25;;;8.50;;
59424;SDS011;45231;44.826;20.312;2023-06-24T11:16:45;14.10;;;8.00;;
59424;SDS011;45231;44.826;20.312;2023-06-24T11:19:11;13.90;;;7.88;;
59424;SDS011;45231;44.826;20.312;2023-06-24T11:21:37;11.20;;;7.63;;
59424;SDS011;45231;44.826;20.312;2023-06-24T11:24:03;12.65;;;6.93;;
59424;SDS011;45231;44.826;20.312;2023-06-24T11:26:29;12.80;;;6.75;;
59424;SDS011;45231;44.826;20.312;2023-06-24T11:28:56;12.32;;;6.93;;
59424;SDS011;45231;44.826;20.312;2023-06-24T11:31:25;10.38;;;6.53;;
59424;SDS011;45231;44.826;20.312;2023-06-24T11:33:51;10.93;;;6.68;;
59424;SDS011;45231;44.826;20.312;2023-06-24T11:36:17;11.88;;;6.60;;
59424;SDS011;45231;44.826;20.312;2023-06-24T11:38:47;12.07;;;6.00;;
59424;SDS011;45231;44.826;20.312;2023-06-24T11:41:13;14.93;;;6.60;;
59424;SDS011;45231;44.826;20.312;2023-06-24T11:43:44;10.75;;;6.65;;
59424;SDS011;45231;44.826;20.312;2023-06-24T11:46:10;11.15;;;6.22;;
59424;SDS011;45231;44.826;20.312;2023-06-24T11:48:39;10.57;;;6.72;;
59424;SDS011;45231;44.826;20.312;2023-06-24T11:51:12;13.30;;;6.60;;
59424;SDS011;45231;44.826;20.312;2023-06-24T11:53:41;10.00;;;5.97;;
59424;SDS011;45231;44.826;20.312;2023-06-24T11:56:11;10.23;;;6.13;;
59424;SDS011;45231;44.826;20.312;2023-06-24T11:58:37;16.17;;;6.53;;
59424;SDS011;45231;44.826;20.312;2023-06-24T12:01:03;9.43;;;5.53;;
59424;SDS011;45231;44.826;20.312;2023-06-24T12:03:33;12.20;;;6.15;;
59424;SDS011;45231;44.826;20.312;2023-06-24T12:05:59;13.30;;;6.13;;
59424;SDS011;45231;44.826;20.312;2023-06-24T12:08:25;8.52;;;5.50;;
59424;SDS011;45231;44.826;20.312;2023-06-24T12:10:52;10.13;;;6.00;;
59424;SDS011;45231;44.826;20.312;2023-06-24T12:13:18;13.40;;;5.88;;
59424;SDS011;45231;44.826;20.312;2023-06-24T12:15:44;10.02;;;4.80;;
59424;SDS011;45231;44.826;20.312;2023-06-24T12:18:12;11.30;;;5.90;;
59424;SDS011;45231;44.826;20.312;2023-06-24T12:20:39;10.55;;;6.05;;
59424;SDS011;45231;44.826;20.312;2023-06-24T12:23:05;11.18;;;5.00;;
59424;SDS011;45231;44.826;20.312;2023-06-24T12:27:57;8.57;;;4.25;;
59424;SDS011;45231;44.826;20.312;2023-06-24T12:30:26;9.90;;;4.95;;
59424;SDS011;45231;44.826;20.312;2023-06-24T12:32:53;9.48;;;4.80;;
59424;SDS011;45231;44.826;20.312;2023-06-24T12:37:45;11.88;;;4.40;;
59424;SDS011;45231;44.826;20.312;2023-06-24T12:40:11;12.30;;;4.57;;
59424;SDS011;45231;44.826;20.312;2023-06-24T12:42:37;9.70;;;4.05;;
59424;SDS011;45231;44.826;20.312;2023-06-24T12:45:03;8.98;;;3.45;;
59424;SDS011;45231;44.826;20.312;2023-06-24T12:47:29;8.63;;;3.38;;
59424;SDS011;45231;44.826;20.312;2023-06-24T12:49:55;9.13;;;3.55;;
59424;SDS011;45231;44.826;20.312;2023-06-24T12:52:21;21.63;;;4.05;;
59424;SDS011;45231;44.826;20.312;2023-06-24T12:54:47;13.95;;;3.70;;
59424;SDS011;45231;44.826;20.312;2023-06-24T12:57:14;6.10;;;3.53;;
59424;SDS011;45231;44.826;20.312;2023-06-24T12:59:41;8.77;;;3.53;;
59424;SDS011;45231;44.826;20.312;2023-06-24T13:02:07;7.70;;;3.38;;
59424;SDS011;45231;44.826;20.312;2023-06-24T13:04:33;8.38;;;3.50;;
59424;SDS011;45231;44.826;20.312;2023-06-24T13:06:59;8.13;;;3.40;;
59424;SDS011;45231;44.826;20.312;2023-06-24T13:09:25;6.70;;;2.97;;
59424;SDS011;45231;44.826;20.312;2023-06-24T13:11:51;10.45;;;3.38;;
59424;SDS011;45231;44.826;20.312;2023-06-24T13:14:17;8.07;;;3.20;;
59424;SDS011;45231;44.826;20.312;2023-06-24T13:16:44;6.30;;;3.85;;
59424;SDS011;45231;44.826;20.312;2023-06-24T13:19:10;8.70;;;4.65;;
59424;SDS011;45231;44.826;20.312;2023-06-24T13:21:36;7.95;;;3.88;;
59424;SDS011;45231;44.826;20.312;2023-06-24T13:24:02;6.82;;;3.30;;
59424;SDS011;45231;44.826;20.312;2023-06-24T13:26:28;7.22;;;3.15;;
59424;SDS011;45231;44.826;20.312;2023-06-24T13:28:54;8.15;;;3.30;;
59424;SDS011;45231;44.826;20.312;2023-06-24T13:31:20;5.43;;;3.13;;
59424;SDS011;45231;44.826;20.312;2023-06-24T13:33:46;7.30;;;3.00;;
59424;SDS011;45231;44.826;20.312;2023-06-24T13:36:25;7.40;;;3.28;;
59424;SDS011;45231;44.826;20.312;2023-06-24T13:38:53;6.57;;;3.05;;
59424;SDS011;45231;44.826;20.312;2023-06-24T13:41:19;8.30;;;3.25;;
59424;SDS011;45231;44.826;20.312;2023-06-24T13:43:45;7.88;;;3.03;;
59424;SDS011;45231;44.826;20.312;2023-06-24T13:48:37;7.60;;;3.25;;
59424;SDS011;45231;44.826;20.312;2023-06-24T13:51:03;6.68;;;3.03;;
59424;SDS011;45231;44.826;20.312;2023-06-24T13:53:30;8.90;;;3.60;;
59424;SDS011;45231;44.826;20.312;2023-06-24T13:58:22;8.05;;;3.65;;
59424;SDS011;45231;44.826;20.312;2023-06-24T14:00:49;7.32;;;3.20;;
59424;SDS011;45231;44.826;20.312;2023-06-24T14:05:41;9.15;;;3.55;;
59424;SDS011;45231;44.826;20.312;2023-06-24T14:08:07;8.90;;;3.30;;
59424;SDS011;45231;44.826;20.312;2023-06-24T14:10:33;8.40;;;3.63;;
59424;SDS011;45231;44.826;20.312;2023-06-24T14:12:59;9.60;;;3.17;;
59424;SDS011;45231;44.826;20.312;2023-06-24T14:17:51;5.93;;;2.85;;
59424;SDS011;45231;44.826;20.312;2023-06-24T14:22:43;9.35;;;3.72;;
59424;SDS011;45231;44.826;20.312;2023-06-24T14:25:09;7.93;;;3.30;;
59424;SDS011;45231;44.826;20.312;2023-06-24T14:27:36;6.22;;;2.80;;
59424;SDS011;45231;44.826;20.312;2023-06-24T14:32:28;7.60;;;2.78;;
59424;SDS011;45231;44.826;20.312;2023-06-24T14:34:54;9.02;;;3.25;;
59424;SDS011;45231;44.826;20.312;2023-06-24T14:37:20;6.43;;;2.90;;
59424;SDS011;45231;44.826;20.312;2023-06-24T14:42:12;6.55;;;2.50;;
59424;SDS011;45231;44.826;20.312;2023-06-24T14:44:38;5.28;;;2.80;;
59424;SDS011;45231;44.826;20.312;2023-06-24T14:47:04;7.65;;;2.60;;
59424;SDS011;45231;44.826;20.312;2023-06-24T14:49:30;6.75;;;2.25;;
59424;SDS011;45231;44.826;20.312;2023-06-24T14:51:56;7.68;;;2.58;;
59424;SDS011;45231;44.826;20.312;2023-06-24T14:54:22;8.00;;;2.72;;
59424;SDS011;45231;44.826;20.312;2023-06-24T14:56:48;5.60;;;2.35;;
59424;SDS011;45231;44.826;20.312;2023-06-24T14:59:14;6.50;;;2.55;;
59424;SDS011;45231;44.826;20.312;2023-06-24T15:01:40;5.57;;;2.40;;
59424;SDS011;45231;44.826;20.312;2023-06-24T15:04:08;7.00;;;2.45;;
59424;SDS011;45231;44.826;20.312;2023-06-24T15:09:00;4.70;;;2.30;;
59424;SDS011;45231;44.826;20.312;2023-06-24T15:11:26;6.10;;;2.38;;
59424;SDS011;45231;44.826;20.312;2023-06-24T15:13:52;6.30;;;2.53;;
59424;SDS011;45231;44.826;20.312;2023-06-24T15:16:18;6.95;;;2.50;;
59424;SDS011;45231;44.826;20.312;2023-06-24T15:18:48;6.75;;;2.22;;
59424;SDS011;45231;44.826;20.312;2023-06-24T15:21:15;5.82;;;2.33;;
59424;SDS011;45231;44.826;20.312;2023-06-24T15:23:41;12.77;;;3.47;;
59424;SDS011;45231;44.826;20.312;2023-06-24T15:26:07;4.72;;;2.42;;
59424;SDS011;45231;44.826;20.312;2023-06-24T15:30:59;6.03;;;2.33;;
59424;SDS011;45231;44.826;20.312;2023-06-24T15:33:25;7.60;;;2.63;;
59424;SDS011;45231;44.826;20.312;2023-06-24T15:35:52;6.18;;;2.38;;
59424;SDS011;45231;44.826;20.312;2023-06-24T15:38:18;5.95;;;2.40;;
59424;SDS011;45231;44.826;20.312;2023-06-24T15:40:44;5.10;;;2.22;;
59424;SDS011;45231;44.826;20.312;2023-06-24T15:43:10;5.25;;;2.60;;
59424;SDS011;45231;44.826;20.312;2023-06-24T15:45:37;4.85;;;1.95;;
59424;SDS011;45231;44.826;20.312;2023-06-24T15:48:03;6.25;;;2.25;;
59424;SDS011;45231;44.826;20.312;2023-06-24T15:50:29;5.30;;;2.58;;
59424;SDS011;45231;44.826;20.312;2023-06-24T15:52:55;5.85;;;2.20;;
59424;SDS011;45231;44.826;20.312;2023-06-24T15:55:21;5.20;;;2.08;;
59424;SDS011;45231;44.826;20.312;2023-06-24T15:57:47;4.57;;;1.92;;
59424;SDS011;45231;44.826;20.312;2023-06-24T16:00:14;6.78;;;2.08;;
59424;SDS011;45231;44.826;20.312;2023-06-24T16:05:06;7.20;;;2.20;;
59424;SDS011;45231;44.826;20.312;2023-06-24T16:09:58;6.70;;;2.30;;
59424;SDS011;45231;44.826;20.312;2023-06-24T16:12:24;5.32;;;2.30;;
59424;SDS011;45231;44.826;20.312;2023-06-24T16:14:50;4.82;;;2.25;;